sensor_id;sensor_type;location;lat;lon;timestamp;pressure;altitude;pressure_sealevel;temperature;humidity
41264;BME280;26998;48.714;9.414;2023-03-15T00:00:07;99168.53;;;1.48;100.00
41264;BME280;26998;48.714;9.414;2023-03-15T00:02:34;99169.34;;;1.38;100.00
41264;BME280;26998;48.714;9.414;2023-03-15T00:05:01;99175.69;;;1.36;100.00
41264;BME280;26998;48.714;9.414;2023-03-15T00:07:28;99178.84;;;1.30;100.00
41264;BME280;26998;48.714;9.414;2023-03-15T00:09:55;99190.94;;;1.32;100.00
41264;BME280;26998;48.714;9.414;2023-03-15T00:12:21;99185.66;;;1.32;100.00
41264;BME280;26998;48.714;9.414;2023-03-15T00:14:49;99196.06;;;1.34;100.00
41264;BME280;26998;48.714;9.414;2023-03-15T00:17:17;99201.72;;;1.29;100.00
41264;BME280;26998;48.714;9.414;2023-03-15T00:19:43;99209.09;;;1.35;100.00
41264;BME280;26998;48.714;9.414;2023-03-15T00:22:10;99211.72;;;1.35;100.00
41264;BME280;26998;48.714;9.414;2023-03-15T00:24:37;99215.59;;;1.31;100.00
41264;BME280;26998;48.714;9.414;2023-03-15T00:27:03;99217.97;;;1.34;100.00
41264;BME280;26998;48.714;9.414;2023-03-15T00:29:31;99222.53;;;1.32;100.00
41264;BME280;26998;48.714;9.414;2023-03-15T00:31:59;99230.94;;;1.26;100.00
41264;BME280;26998;48.714;9.414;2023-03-15T00:34:25;99238.84;;;1.26;100.00
41264;BME280;26998;48.714;9.414;2023-03-15T00:36:52;99246.28;;;1.21;100.00
41264;BME280;26998;48.714;9.414;2023-03-15T00:39:19;99259.19;;;1.24;100.00
41264;BME280;26998;48.714;9.414;2023-03-15T00:41:46;99259.19;;;1.24;100.00
41264;BME280;26998;48.714;9.414;2023-03-15T00:44:12;99281.69;;;1.28;100.00
41264;BME280;26998;48.714;9.414;2023-03-15T00:46:39;99283.09;;;1.32;100.00
41264;BME280;26998;48.714;9.414;2023-03-15T00:49:08;99280.06;;;1.37;100.00
41264;BME280;26998;48.714;9.414;2023-03-15T00:51:35;99285.94;;;1.41;100.00
41264;BME280;26998;48.714;9.414;2023-03-15T00:54:02;99297.81;;;1.35;100.00
41264;BME280;26998;48.714;9.414;2023-03-15T00:56:28;99298.31;;;1.29;100.00
41264;BME280;26998;48.714;9.414;2023-03-15T00:58:56;99308.59;;;1.32;100.00
41264;BME280;26998;48.714;9.414;2023-03-15T01:01:26;99324.41;;;1.32;100.00
41264;BME280;26998;48.714;9.414;2023-03-15T01:03:54;99339.38;;;1.31;100.00
41264;BME280;26998;48.714;9.414;2023-03-15T01:06:23;99353.94;;;1.35;100.00
41264;BME280;26998;48.714;9.414;2023-03-15T01:08:50;99363.91;;;1.32;100.00
41264;BME280;26998;48.714;9.414;2023-03-15T01:11:21;99371.97;;;1.19;100.00
41264;BME280;26998;48.714;9.414;2023-03-15T01:13:51;99368.63;;;1.17;100.00
41264;BME280;26998;48.714;9.414;2023-03-15T01:16:19;99376.91;;;1.12;100.00
41264;BME280;26998;48.714;9.414;2023-03-15T01:18:46;99390.06;;;1.12;100.00
41264;BME280;26998;48.714;9.414;2023-03-15T01:21:14;99393.53;;;1.13;100.00
41264;BME280;26998;48.714;9.414;2023-03-15T01:23:41;99407.28;;;1.17;100.00
41264;BME280;26998;48.714;9.414;2023-03-15T01:26:10;99415.66;;;1.22;100.00
41264;BME280;26998;48.714;9.414;2023-03-15T01:28:37;99422.66;;;1.32;100.00
41264;BME280;26998;48.714;9.414;2023-03-15T01:31:04;99420.03;;;1.32;100.00
41264;BME280;26998;48.714;9.414;2023-03-15T01:33:30;99427.47;;;1.27;100.00
41264;BME280;26998;48.714;9.414;2023-03-15T01:36:03;99416.94;;;1.27;100.00
41264;BME280;26998;48.714;9.414;2023-03-15T01:38:30;99420.50;;;1.37;100.00
41264;BME280;26998;48.714;9.414;2023-03-15T01:40:57;99421.44;;;1.36;100.00
41264;BME280;26998;48.714;9.414;2023-03-15T01:43:25;99409.97;;;1.37;100.00
41264;BME280;26998;48.714;9.414;2023-03-15T01:48:37;99398.25;;;1.30;100.00
41264;BME280;26998;48.714;9.414;2023-03-15T01:51:09;99374.03;;;1.36;100.00
41264;BME280;26998;48.714;9.414;2023-03-15T01:53:38;99363.50;;;1.36;100.00
41264;BME280;26998;48.714;9.414;2023-03-15T01:56:07;99366.34;;;1.45;100.00
41264;BME280;26998;48.714;9.414;2023-03-15T01:58:35;99381.91;;;1.48;100.00
41264;BME280;26998;48.714;9.414;2023-03-15T02:01:03;99379.78;;;1.42;100.00
41264;BME280;26998;48.714;9.414;2023-03-15T02:03:34;99378.44;;;1.47;100.00
41264;BME280;26998;48.714;9.414;2023-03-15T02:06:06;99375.81;;;1.47;100.00
41264;BME280;26998;48.714;9.414;2023-03-15T02:08:39;99382.47;;;1.51;100.00
41264;BME280;26998;48.714;9.414;2023-03-15T02:11:07;99383.06;;;1.55;100.00
41264;BME280;26998;48.714;9.414;2023-03-15T02:13:34;99379.22;;;1.59;100.00
41264;BME280;26998;48.714;9.414;2023-03-15T02:16:01;99387.31;;;1.67;100.00
41264;BME280;26998;48.714;9.414;2023-03-15T02:18:29;99407.31;;;1.70;100.00
41264;BME280;26998;48.714;9.414;2023-03-15T02:23:42;99425.75;;;1.70;100.00
41264;BME280;26998;48.714;9.414;2023-03-15T02:29:23;99438.53;;;1.74;100.00
41264;BME280;26998;48.714;9.414;2023-03-15T02:31:51;99451.69;;;1.74;100.00
41264;BME280;26998;48.714;9.414;2023-03-15T02:34:18;99429.72;;;1.64;100.00
41264;BME280;26998;48.714;9.414;2023-03-15T02:36:45;99426.91;;;1.56;100.00
41264;BME280;26998;48.714;9.414;2023-03-15T02:39:19;99432.16;;;1.56;100.00
41264;BME280;26998;48.714;9.414;2023-03-15T02:41:57;99436.63;;;1.44;100.00
41264;BME280;26998;48.714;9.414;2023-03-15T02:44:32;99433.69;;;1.37;100.00
41264;BME280;26998;48.714;9.414;2023-03-15T02:47:10;99441.50;;;1.28;100.00
41264;BME280;26998;48.714;9.414;2023-03-15T02:49:42;99454.03;;;1.24;100.00
41264;BME280;26998;48.714;9.414;2023-03-15T02:52:10;99463.16;;;1.20;100.00
41264;BME280;26998;48.714;9.414;2023-03-15T02:54:37;99476.09;;;1.12;100.00
41264;BME280;26998;48.714;9.414;2023-03-15T02:57:04;99476.13;;;1.01;100.00
41264;BME280;26998;48.714;9.414;2023-03-15T02:59:30;99498.75;;;1.03;100.00
41264;BME280;26998;48.714;9.414;2023-03-15T03:01:57;99495.63;;;0.98;100.00
41264;BME280;26998;48.714;9.414;2023-03-15T03:04:23;99499.94;;;0.99;100.00
41264;BME280;26998;48.714;9.414;2023-03-15T03:06:50;99514.88;;;0.99;100.00
41264;BME280;26998;48.714;9.414;2023-03-15T03:09:16;99521.22;;;0.96;100.00
41264;BME280;26998;48.714;9.414;2023-03-15T03:11:43;99521.69;;;0.90;100.00
41264;BME280;26998;48.714;9.414;2023-03-15T03:14:09;99520.63;;;0.92;100.00
41264;BME280;26998;48.714;9.414;2023-03-15T03:16:37;99516.94;;;0.95;100.00
41264;BME280;26998;48.714;9.414;2023-03-15T03:19:04;99518.59;;;0.96;100.00
41264;BME280;26998;48.714;9.414;2023-03-15T03:21:30;99513.81;;;1.01;100.00
41264;BME280;26998;48.714;9.414;2023-03-15T03:23:57;99508.06;;;0.96;100.00
41264;BME280;26998;48.714;9.414;2023-03-15T03:26:23;99507.47;;;0.92;100.00
41264;BME280;26998;48.714;9.414;2023-03-15T03:28:50;99510.47;;;0.88;100.00
41264;BME280;26998;48.714;9.414;2023-03-15T03:31:19;99516.34;;;0.91;100.00
41264;BME280;26998;48.714;9.414;2023-03-15T03:33:46;99513.22;;;0.86;100.00
41264;BME280;26998;48.714;9.414;2023-03-15T03:36:12;99520.16;;;0.87;100.00
41264;BME280;26998;48.714;9.414;2023-03-15T03:38:41;99530.22;;;0.82;100.00
41264;BME280;26998;48.714;9.414;2023-03-15T03:41:09;99538.94;;;0.83;100.00
41264;BME280;26998;48.714;9.414;2023-03-15T03:43:39;99530.78;;;0.75;100.00
41264;BME280;26998;48.714;9.414;2023-03-15T03:46:05;99541.44;;;0.73;100.00
41264;BME280;26998;48.714;9.414;2023-03-15T03:48:32;99542.53;;;0.59;100.00
41264;BME280;26998;48.714;9.414;2023-03-15T03:50:59;99547.28;;;0.54;100.00
41264;BME280;26998;48.714;9.414;2023-03-15T03:53:26;99546.09;;;0.47;100.00
41264;BME280;26998;48.714;9.414;2023-03-15T03:55:53;99555.28;;;0.41;100.00
41264;BME280;26998;48.714;9.414;2023-03-15T03:58:20;99562.66;;;0.36;100.00
41264;BME280;26998;48.714;9.414;2023-03-15T04:00:46;99565.78;;;0.41;100.00
41264;BME280;26998;48.714;9.414;2023-03-15T04:03:14;99576.88;;;0.34;100.00
41264;BME280;26998;48.714;9.414;2023-03-15T04:05:41;99588.59;;;0.30;100.00
41264;BME280;26998;48.714;9.414;2023-03-15T04:08:07;99603.75;;;0.26;100.00
41264;BME280;26998;48.714;9.414;2023-03-15T04:10:34;99611.50;;;0.28;100.00
41264;BME280;26998;48.714;9.414;2023-03-15T04:13:00;99627.41;;;0.26;100.00
41264;BME280;26998;48.714;9.414;2023-03-15T04:15:27;99621.94;;;0.29;100.00
41264;BME280;26998;48.714;9.414;2023-03-15T04:17:54;99621.81;;;0.31;100.00
41264;BME280;26998;48.714;9.414;2023-03-15T04:20:22;99619.75;;;0.23;100.00
41264;BME280;26998;48.714;9.414;2023-03-15T04:22:50;99619.84;;;0.21;100.00
41264;BME280;26998;48.714;9.414;2023-03-15T04:25:20;99631.09;;;0.23;100.00
41264;BME280;26998;48.714;9.414;2023-03-15T04:27:48;99625.47;;;0.17;100.00
41264;BME280;26998;48.714;9.414;2023-03-15T04:30:14;99640.28;;;0.18;100.00
41264;BME280;26998;48.714;9.414;2023-03-15T04:32:41;99645.53;;;0.18;100.00
41264;BME280;26998;48.714;9.414;2023-03-15T04:35:08;99649.84;;;0.19;100.00
41264;BME280;26998;48.714;9.414;2023-03-15T04:37:36;99658.91;;;0.15;100.00
41264;BME280;26998;48.714;9.414;2023-03-15T04:40:02;99658.00;;;0.03;100.00
41264;BME280;26998;48.714;9.414;2023-03-15T04:42:29;99673.38;;;-0.04;100.00
41264;BME280;26998;48.714;9.414;2023-03-15T04:44:55;99672.75;;;-0.07;100.00
41264;BME280;26998;48.714;9.414;2023-03-15T04:47:22;99672.50;;;-0.15;100.00
41264;BME280;26998;48.714;9.414;2023-03-15T04:49:48;99682.56;;;-0.22;100.00
41264;BME280;26998;48.714;9.414;2023-03-15T04:52:15;99690.66;;;-0.25;100.00
41264;BME280;26998;48.714;9.414;2023-03-15T04:54:41;99683.22;;;-0.31;100.00
41264;BME280;26998;48.714;9.414;2023-03-15T04:57:08;99697.66;;;-0.37;100.00
41264;BME280;26998;48.714;9.414;2023-03-15T04:59:34;99699.53;;;-0.39;100.00
41264;BME280;26998;48.714;9.414;2023-03-15T05:02:01;99711.63;;;-0.36;100.00
41264;BME280;26998;48.714;9.414;2023-03-15T05:04:29;99708.69;;;-0.44;100.00
41264;BME280;26998;48.714;9.414;2023-03-15T05:06:57;99714.06;;;-0.46;100.00
41264;BME280;26998;48.714;9.414;2023-03-15T05:09:24;99323.00;;;-0.49;100.00
41264;BME280;26998;48.714;9.414;2023-03-15T05:11:52;99091.13;;;-0.50;100.00
41264;BME280;26998;48.714;9.414;2023-03-15T05:14:19;99085.38;;;-0.55;100.00
41264;BME280;26998;48.714;9.414;2023-03-15T05:16:45;99079.75;;;-0.50;100.00
41264;BME280;26998;48.714;9.414;2023-03-15T05:19:12;99077.75;;;-0.58;100.00
41264;BME280;26998;48.714;9.414;2023-03-15T05:21:38;99068.09;;;-0.57;100.00
41264;BME280;26998;48.714;9.414;2023-03-15T05:24:06;99066.78;;;-0.63;100.00
41264;BME280;26998;48.714;9.414;2023-03-15T05:26:32;99067.03;;;-0.66;100.00
41264;BME280;26998;48.714;9.414;2023-03-15T05:28:59;99065.34;;;-0.67;100.00
41264;BME280;26998;48.714;9.414;2023-03-15T05:31:25;99062.00;;;-0.58;100.00
41264;BME280;26998;48.714;9.414;2023-03-15T05:33:52;99055.69;;;-0.55;100.00
41264;BME280;26998;48.714;9.414;2023-03-15T05:36:18;99048.75;;;-0.56;100.00
41264;BME280;26998;48.714;9.414;2023-03-15T05:38:45;99016.56;;;-0.58;100.00
41264;BME280;26998;48.714;9.414;2023-03-15T05:41:11;99013.09;;;-0.59;100.00
41264;BME280;26998;48.714;9.414;2023-03-15T05:43:38;99009.75;;;-0.61;100.00
41264;BME280;26998;48.714;9.414;2023-03-15T05:46:04;99020.25;;;-0.61;100.00
41264;BME280;26998;48.714;9.414;2023-03-15T05:48:31;99005.91;;;-0.57;100.00
41264;BME280;26998;48.714;9.414;2023-03-15T05:50:57;99007.47;;;-0.54;100.00
41264;BME280;26998;48.714;9.414;2023-03-15T05:53:24;99009.97;;;-0.53;100.00
41264;BME280;26998;48.714;9.414;2023-03-15T05:55:50;99009.75;;;-0.61;100.00
41264;BME280;26998;48.714;9.414;2023-03-15T05:58:17;99014.28;;;-0.63;100.00
41264;BME280;26998;48.714;9.414;2023-03-15T06:00:44;99015.25;;;-0.64;100.00
41264;BME280;26998;48.714;9.414;2023-03-15T06:03:10;99022.97;;;-0.62;100.00
41264;BME280;26998;48.714;9.414;2023-03-15T06:05:37;99024.09;;;-0.65;100.00
41264;BME280;26998;48.714;9.414;2023-03-15T06:08:03;99025.38;;;-0.59;100.00
41264;BME280;26998;48.714;9.414;2023-03-15T06:10:30;99027.16;;;-0.60;100.00
41264;BME280;26998;48.714;9.414;2023-03-15T06:12:56;99028.97;;;-0.60;100.00
41264;BME280;26998;48.714;9.414;2023-03-15T06:15:24;99034.00;;;-0.68;100.00
41264;BME280;26998;48.714;9.414;2023-03-15T06:17:51;99041.97;;;-0.70;100.00
41264;BME280;26998;48.714;9.414;2023-03-15T06:20:18;99037.91;;;-0.63;100.00
41264;BME280;26998;48.714;9.414;2023-03-15T06:22:44;99042.31;;;-0.52;100.00
41264;BME280;26998;48.714;9.414;2023-03-15T06:25:11;99063.75;;;-0.47;100.00
41264;BME280;26998;48.714;9.414;2023-03-15T06:27:37;99073.41;;;-0.36;100.00
41264;BME280;26998;48.714;9.414;2023-03-15T06:30:07;99077.34;;;-0.31;100.00
41264;BME280;26998;48.714;9.414;2023-03-15T06:32:34;99090.19;;;-0.16;100.00
41264;BME280;26998;48.714;9.414;2023-03-15T06:35:01;99092.06;;;-0.07;100.00
41264;BME280;26998;48.714;9.414;2023-03-15T06:37:30;99098.66;;;-0.13;100.00
41264;BME280;26998;48.714;9.414;2023-03-15T06:40:04;99119.25;;;0.03;100.00
41264;BME280;26998;48.714;9.414;2023-03-15T06:42:32;99133.44;;;0.12;100.00
41264;BME280;26998;48.714;9.414;2023-03-15T06:44:58;99155.66;;;0.19;100.00
41264;BME280;26998;48.714;9.414;2023-03-15T06:47:25;99185.34;;;0.31;100.00
41264;BME280;26998;48.714;9.414;2023-03-15T06:49:52;99212.38;;;0.33;100.00
41264;BME280;26998;48.714;9.414;2023-03-15T06:52:22;99239.72;;;0.41;100.00
41264;BME280;26998;48.714;9.414;2023-03-15T06:54:50;99268.59;;;0.53;100.00
41264;BME280;26998;48.714;9.414;2023-03-15T06:57:17;99288.44;;;0.57;100.00
41264;BME280;26998;48.714;9.414;2023-03-15T06:59:44;99296.69;;;0.63;100.00
41264;BME280;26998;48.714;9.414;2023-03-15T07:02:17;99304.78;;;0.72;100.00
41264;BME280;26998;48.714;9.414;2023-03-15T07:04:44;99314.47;;;0.71;100.00
41264;BME280;26998;48.714;9.414;2023-03-15T07:07:11;99321.66;;;1.01;100.00
41264;BME280;26998;48.714;9.414;2023-03-15T07:09:39;99325.69;;;1.37;100.00
41264;BME280;26998;48.714;9.414;2023-03-15T07:12:06;99335.84;;;1.63;100.00
41264;BME280;26998;48.714;9.414;2023-03-15T07:14:35;99327.41;;;1.69;100.00
41264;BME280;26998;48.714;9.414;2023-03-15T07:17:02;99333.97;;;1.75;100.00
41264;BME280;26998;48.714;9.414;2023-03-15T07:19:28;99320.53;;;2.08;100.00
41264;BME280;26998;48.714;9.414;2023-03-15T07:21:55;99326.53;;;1.90;100.00
41264;BME280;26998;48.714;9.414;2023-03-15T07:24:22;99325.41;;;1.82;100.00
41264;BME280;26998;48.714;9.414;2023-03-15T07:26:48;99330.81;;;2.12;100.00
41264;BME280;26998;48.714;9.414;2023-03-15T07:29:18;99330.16;;;2.19;100.00
41264;BME280;26998;48.714;9.414;2023-03-15T07:31:44;99330.81;;;2.52;100.00
41264;BME280;26998;48.714;9.414;2023-03-15T07:34:11;99312.66;;;2.68;100.00
41264;BME280;26998;48.714;9.414;2023-03-15T07:36:38;99294.63;;;2.93;100.00
41264;BME280;26998;48.714;9.414;2023-03-15T07:39:08;99256.41;;;2.77;100.00
41264;BME280;26998;48.714;9.414;2023-03-15T07:41:40;99245.59;;;2.81;100.00
41264;BME280;26998;48.714;9.414;2023-03-15T07:44:06;99250.28;;;3.06;100.00
41264;BME280;26998;48.714;9.414;2023-03-15T07:46:33;99236.94;;;3.08;100.00
41264;BME280;26998;48.714;9.414;2023-03-15T07:49:01;99230.84;;;2.88;100.00
41264;BME280;26998;48.714;9.414;2023-03-15T07:51:29;99216.66;;;2.98;100.00
41264;BME280;26998;48.714;9.414;2023-03-15T07:53:57;99187.19;;;3.03;100.00
41264;BME280;26998;48.714;9.414;2023-03-15T07:56:24;99171.50;;;2.92;100.00
41264;BME280;26998;48.714;9.414;2023-03-15T07:58:51;99177.09;;;3.36;100.00
41264;BME280;26998;48.714;9.414;2023-03-15T08:01:19;99145.13;;;3.29;100.00
41264;BME280;26998;48.714;9.414;2023-03-15T08:03:46;99124.66;;;3.41;100.00
41264;BME280;26998;48.714;9.414;2023-03-15T08:06:12;99099.41;;;3.56;100.00
41264;BME280;26998;48.714;9.414;2023-03-15T08:08:39;99094.25;;;3.55;100.00
41264;BME280;26998;48.714;9.414;2023-03-15T08:11:07;99082.66;;;3.65;100.00
41264;BME280;26998;48.714;9.414;2023-03-15T08:13:33;99066.22;;;3.72;100.00
41264;BME280;26998;48.714;9.414;2023-03-15T08:16:00;99058.53;;;3.96;100.00
41264;BME280;26998;48.714;9.414;2023-03-15T08:18:27;99032.00;;;3.88;100.00
41264;BME280;26998;48.714;9.414;2023-03-15T08:20:54;99009.56;;;3.92;100.00
41264;BME280;26998;48.714;9.414;2023-03-15T08:23:21;99001.59;;;4.28;100.00
41264;BME280;26998;48.714;9.414;2023-03-15T08:25:48;98995.13;;;4.74;100.00
41264;BME280;26998;48.714;9.414;2023-03-15T08:28:15;98950.88;;;4.67;100.00
41264;BME280;26998;48.714;9.414;2023-03-15T08:30:42;98943.66;;;4.43;100.00
41264;BME280;26998;48.714;9.414;2023-03-15T08:33:09;98947.06;;;4.35;100.00
41264;BME280;26998;48.714;9.414;2023-03-15T08:35:35;98952.00;;;4.56;100.00
41264;BME280;26998;48.714;9.414;2023-03-15T08:38:02;98935.47;;;5.04;100.00
41264;BME280;26998;48.714;9.414;2023-03-15T08:40:30;98928.47;;;4.87;100.00
41264;BME280;26998;48.714;9.414;2023-03-15T08:42:57;98931.59;;;5.33;100.00
41264;BME280;26998;48.714;9.414;2023-03-15T08:45:25;98927.97;;;5.42;100.00
41264;BME280;26998;48.714;9.414;2023-03-15T08:48:01;98917.34;;;5.34;100.00
41264;BME280;26998;48.714;9.414;2023-03-15T08:50:28;98914.03;;;5.32;100.00
41264;BME280;26998;48.714;9.414;2023-03-15T08:52:54;98912.72;;;5.61;100.00
41264;BME280;26998;48.714;9.414;2023-03-15T08:55:21;98910.72;;;5.38;100.00
41264;BME280;26998;48.714;9.414;2023-03-15T08:57:48;98911.72;;;5.53;100.00
41264;BME280;26998;48.714;9.414;2023-03-15T09:00:15;98917.06;;;5.86;100.00
41264;BME280;26998;48.714;9.414;2023-03-15T09:02:43;98916.84;;;6.45;100.00
41264;BME280;26998;48.714;9.414;2023-03-15T09:05:09;98914.41;;;6.19;96.90
41264;BME280;26998;48.714;9.414;2023-03-15T09:07:37;98912.94;;;6.08;97.44
41264;BME280;26998;48.714;9.414;2023-03-15T09:10:06;98916.31;;;6.50;98.96
41264;BME280;26998;48.714;9.414;2023-03-15T09:12:35;98922.59;;;7.04;92.95
41264;BME280;26998;48.714;9.414;2023-03-15T09:15:02;98917.00;;;6.35;86.78
41264;BME280;26998;48.714;9.414;2023-03-15T09:17:28;98921.53;;;6.18;89.62
41264;BME280;26998;48.714;9.414;2023-03-15T09:19:55;98939.25;;;6.42;89.79
41264;BME280;26998;48.714;9.414;2023-03-15T09:22:21;98930.41;;;6.58;86.99
41264;BME280;26998;48.714;9.414;2023-03-15T09:25:04;98925.72;;;6.68;87.46
41264;BME280;26998;48.714;9.414;2023-03-15T09:27:31;98944.22;;;6.29;85.78
41264;BME280;26998;48.714;9.414;2023-03-15T09:29:58;98940.63;;;5.97;86.05
41264;BME280;26998;48.714;9.414;2023-03-15T09:32:25;98944.59;;;6.18;94.52
41264;BME280;26998;48.714;9.414;2023-03-15T09:34:52;98941.59;;;6.21;90.86
41264;BME280;26998;48.714;9.414;2023-03-15T09:37:19;98936.63;;;6.18;91.20
41264;BME280;26998;48.714;9.414;2023-03-15T09:39:45;98931.91;;;6.44;91.26
41264;BME280;26998;48.714;9.414;2023-03-15T09:42:19;98929.88;;;6.63;93.86
41264;BME280;26998;48.714;9.414;2023-03-15T09:44:51;98937.84;;;6.71;91.87
41264;BME280;26998;48.714;9.414;2023-03-15T09:47:39;98939.56;;;6.47;83.62
41264;BME280;26998;48.714;9.414;2023-03-15T09:50:19;98947.59;;;6.15;84.07
41264;BME280;26998;48.714;9.414;2023-03-15T09:55:24;98942.06;;;5.43;87.70
41264;BME280;26998;48.714;9.414;2023-03-15T09:57:53;98946.56;;;5.83;93.24
41264;BME280;26998;48.714;9.414;2023-03-15T10:00:37;98945.28;;;6.20;93.08
41264;BME280;26998;48.714;9.414;2023-03-15T10:03:05;98956.88;;;5.94;86.18
41264;BME280;26998;48.714;9.414;2023-03-15T10:05:44;98957.03;;;6.01;84.70
41264;BME280;26998;48.714;9.414;2023-03-15T10:08:13;98949.72;;;5.70;85.07
41264;BME280;26998;48.714;9.414;2023-03-15T10:10:54;98947.88;;;5.79;87.67
41264;BME280;26998;48.714;9.414;2023-03-15T10:13:58;98953.19;;;5.79;89.22
41264;BME280;26998;48.714;9.414;2023-03-15T10:16:38;98941.28;;;6.08;94.27
41264;BME280;26998;48.714;9.414;2023-03-15T10:25:03;98937.97;;;6.06;94.70
41264;BME280;26998;48.714;9.414;2023-03-15T10:27:40;98937.00;;;5.98;94.65
41264;BME280;26998;48.714;9.414;2023-03-15T10:30:17;98937.47;;;5.94;95.38
41264;BME280;26998;48.714;9.414;2023-03-15T10:32:55;98937.13;;;5.81;94.77
41264;BME280;26998;48.714;9.414;2023-03-15T10:35:24;98932.47;;;5.91;95.28
41264;BME280;26998;48.714;9.414;2023-03-15T10:37:51;98935.78;;;5.76;98.50
41264;BME280;26998;48.714;9.414;2023-03-15T10:40:38;98921.88;;;6.07;96.38
41264;BME280;26998;48.714;9.414;2023-03-15T10:43:15;98921.38;;;6.20;94.68
41264;BME280;26998;48.714;9.414;2023-03-15T10:45:46;98918.06;;;6.18;94.79
41264;BME280;26998;48.714;9.414;2023-03-15T10:48:17;98924.53;;;6.15;94.05
41264;BME280;26998;48.714;9.414;2023-03-15T10:50:45;98927.47;;;6.29;94.44
41264;BME280;26998;48.714;9.414;2023-03-15T10:53:19;98933.13;;;6.25;94.23
41264;BME280;26998;48.714;9.414;2023-03-15T10:55:46;98922.97;;;6.45;91.12
41264;BME280;26998;48.714;9.414;2023-03-15T10:58:23;98921.97;;;6.38;93.28
41264;BME280;26998;48.714;9.414;2023-03-15T11:01:02;98920.25;;;6.70;87.14
41264;BME280;26998;48.714;9.414;2023-03-15T11:03:29;98923.84;;;6.85;83.78
41264;BME280;26998;48.714;9.414;2023-03-15T11:05:58;98919.28;;;7.02;89.04
41264;BME280;26998;48.714;9.414;2023-03-15T11:08:37;98914.34;;;7.22;86.48
41264;BME280;26998;48.714;9.414;2023-03-15T11:11:05;98923.81;;;7.25;84.33
41264;BME280;26998;48.714;9.414;2023-03-15T11:13:34;98912.00;;;7.50;84.59
41264;BME280;26998;48.714;9.414;2023-03-15T11:16:28;98911.31;;;7.33;85.66
41264;BME280;26998;48.714;9.414;2023-03-15T11:18:56;98905.47;;;7.61;78.00
41264;BME280;26998;48.714;9.414;2023-03-15T11:21:29;98909.66;;;7.55;72.46
41264;BME280;26998;48.714;9.414;2023-03-15T11:23:56;98904.03;;;7.50;73.18
41264;BME280;26998;48.714;9.414;2023-03-15T11:26:25;98899.31;;;7.37;72.54
41264;BME280;26998;48.714;9.414;2023-03-15T11:29:03;98893.66;;;7.09;77.06
41264;BME280;26998;48.714;9.414;2023-03-15T11:31:31;98898.16;;;6.69;71.68
41264;BME280;26998;48.714;9.414;2023-03-15T11:34:06;98901.50;;;6.63;74.62
41264;BME280;26998;48.714;9.414;2023-03-15T11:36:39;98891.53;;;6.65;77.19
41264;BME280;26998;48.714;9.414;2023-03-15T11:39:11;98897.84;;;6.17;77.63
41264;BME280;26998;48.714;9.414;2023-03-15T11:41:43;98890.16;;;6.22;80.40
41264;BME280;26998;48.714;9.414;2023-03-15T11:44:36;98900.78;;;6.30;83.27
41264;BME280;26998;48.714;9.414;2023-03-15T11:49:55;98892.00;;;6.13;87.56
41264;BME280;26998;48.714;9.414;2023-03-15T11:52:25;98896.81;;;6.10;90.16
41264;BME280;26998;48.714;9.414;2023-03-15T11:54:56;98884.38;;;6.10;95.21
41264;BME280;26998;48.714;9.414;2023-03-15T11:57:41;98892.38;;;5.94;92.92
41264;BME280;26998;48.714;9.414;2023-03-15T12:00:47;98892.03;;;5.89;95.84
41264;BME280;26998;48.714;9.414;2023-03-15T12:03:29;98882.91;;;5.99;94.72
41264;BME280;26998;48.714;9.414;2023-03-15T12:06:04;98878.78;;;6.05;92.16
41264;BME280;26998;48.714;9.414;2023-03-15T12:08:53;98876.09;;;6.21;92.10
41264;BME280;26998;48.714;9.414;2023-03-15T12:14:01;98875.22;;;6.29;87.73
41264;BME280;26998;48.714;9.414;2023-03-15T12:16:31;98873.63;;;6.20;87.63
41264;BME280;26998;48.714;9.414;2023-03-15T12:19:08;98869.81;;;6.14;87.12
41264;BME280;26998;48.714;9.414;2023-03-15T12:21:40;98873.81;;;6.02;89.98
41264;BME280;26998;48.714;9.414;2023-03-15T12:24:28;98891.38;;;6.03;95.37
41264;BME280;26998;48.714;9.414;2023-03-15T12:27:17;98887.88;;;5.86;100.00
41264;BME280;26998;48.714;9.414;2023-03-15T12:29:48;98892.19;;;5.71;100.00
41264;BME280;26998;48.714;9.414;2023-03-15T12:32:24;98899.31;;;5.62;100.00
41264;BME280;26998;48.714;9.414;2023-03-15T12:34:52;98903.13;;;5.60;100.00
41264;BME280;26998;48.714;9.414;2023-03-15T12:37:26;98893.69;;;5.73;100.00
41264;BME280;26998;48.714;9.414;2023-03-15T12:53:22;98883.25;;;6.60;84.04
41264;BME280;26998;48.714;9.414;2023-03-15T12:55:53;98890.44;;;6.52;81.71
41264;BME280;26998;48.714;9.414;2023-03-15T12:58:36;98893.53;;;6.08;73.93
41264;BME280;26998;48.714;9.414;2023-03-15T13:01:06;98894.31;;;6.16;76.43
41264;BME280;26998;48.714;9.414;2023-03-15T13:03:34;98900.75;;;6.38;75.61
41264;BME280;26998;48.714;9.414;2023-03-15T13:06:13;98899.44;;;6.34;75.85
41264;BME280;26998;48.714;9.414;2023-03-15T13:14:30;98892.50;;;6.25;71.34
41264;BME280;26998;48.714;9.414;2023-03-15T13:23:13;98901.13;;;6.19;74.47
41264;BME280;26998;48.714;9.414;2023-03-15T13:26:13;98907.44;;;5.69;100.00
41264;BME280;26998;48.714;9.414;2023-03-15T13:28:47;98918.97;;;5.19;100.00
41264;BME280;26998;48.714;9.414;2023-03-15T13:31:19;98935.91;;;4.83;100.00
41264;BME280;26998;48.714;9.414;2023-03-15T13:33:50;98981.94;;;4.91;100.00
41264;BME280;26998;48.714;9.414;2023-03-15T13:36:18;99016.72;;;4.61;100.00
41264;BME280;26998;48.714;9.414;2023-03-15T13:38:49;99024.13;;;4.84;100.00
41264;BME280;26998;48.714;9.414;2023-03-15T13:41:20;99028.31;;;4.95;100.00
41264;BME280;26998;48.714;9.414;2023-03-15T13:43:49;99022.50;;;4.91;100.00
41264;BME280;26998;48.714;9.414;2023-03-15T13:46:19;99017.88;;;4.93;100.00
41264;BME280;26998;48.714;9.414;2023-03-15T13:48:47;99009.25;;;4.91;100.00
41264;BME280;26998;48.714;9.414;2023-03-15T13:51:44;99021.63;;;4.82;100.00
41264;BME280;26998;48.714;9.414;2023-03-15T13:54:26;99037.41;;;4.92;100.00
41264;BME280;26998;48.714;9.414;2023-03-15T13:56:55;99039.84;;;4.59;100.00
41264;BME280;26998;48.714;9.414;2023-03-15T13:59:26;99053.19;;;4.50;100.00
41264;BME280;26998;48.714;9.414;2023-03-15T14:01:55;99053.47;;;4.65;100.00